<?xml version='1.0' encoding='UTF-8'?>
<gpx xmlns="http://www.topografix.com/GPX/1/1" creator="www.balnam.be" version="1.1" xmlns:xsi="http://www.w3.org/2001/XMLSchema-instance" xsi:schemaLocation="http://www.topografix.com/GPX/1/1 http://www.topografix.com/GPX/1/1/gpx.xsd">
<trk>
<name>nonan25</name>
<cmt>v</cmt>
<desc>Anthée Chemin n°25 Rue Burton</desc>
<link href="https://chemins.be/anthee/chemin/25"/><trkseg>
<trkpt lat="50.237624" lon="4.758270"><time>2026-05-02T22:09:47Z</time></trkpt>
<trkpt lat="50.237052" lon="4.757031"><time>2026-05-02T22:19:47Z</time></trkpt>
<trkpt lat="50.236555" lon="4.755303"><time>2026-05-02T22:29:47Z</time></trkpt>
<trkpt lat="50.235879" lon="4.753111"><time>2026-05-02T22:39:47Z</time></trkpt>
<trkpt lat="50.234511" lon="4.750871"><time>2026-05-02T22:49:47Z</time></trkpt>
<trkpt lat="50.233976" lon="4.749283"><time>2026-05-02T22:59:47Z</time></trkpt>
<trkpt lat="50.233671" lon="4.749210"><time>2026-05-02T23:09:47Z</time></trkpt>
<trkpt lat="50.232905" lon="4.749639"><time>2026-05-02T23:19:47Z</time></trkpt>
</trkseg></trk>
<trk>
<name>nonan25</name>
<cmt>d</cmt>
<desc>Anthée Chemin n°25 Rue Burton</desc>
<link href="https://chemins.be/anthee/chemin/25"/><trkseg>
<trkpt lat="50.232905" lon="4.749639"><time>2026-05-02T23:19:47Z</time></trkpt>
<trkpt lat="50.231644" lon="4.750330"><time>2026-05-02T23:29:47Z</time></trkpt>
</trkseg></trk>
<trk>
<name>nonan25</name>
<cmt>v</cmt>
<desc>Anthée Chemin n°25 Rue Burton</desc>
<link href="https://chemins.be/anthee/chemin/25"/><trkseg>
<trkpt lat="50.231644" lon="4.750330"><time>2026-05-02T23:29:47Z</time></trkpt>
<trkpt lat="50.229915" lon="4.751269"><time>2026-05-02T23:39:47Z</time></trkpt>
<trkpt lat="50.229627" lon="4.751252"><time>2026-05-02T23:49:47Z</time></trkpt>
<trkpt lat="50.228982" lon="4.750588"><time>2026-05-02T23:59:47Z</time></trkpt>
<trkpt lat="50.228493" lon="4.749155"><time>2026-05-03T00:09:47Z</time></trkpt>
</trkseg></trk>
<trk>
<name>nonan25</name>
<cmt>d</cmt>
<desc>Anthée Chemin n°25 Rue Burton</desc>
<link href="https://chemins.be/anthee/chemin/25"/><trkseg>
<trkpt lat="50.228493" lon="4.749155"><time>2026-05-03T00:09:47Z</time></trkpt>
<trkpt lat="50.227862" lon="4.749374"><time>2026-05-03T00:19:47Z</time></trkpt>
<trkpt lat="50.227565" lon="4.749470"><time>2026-05-03T00:29:47Z</time></trkpt>
<trkpt lat="50.226828" lon="4.749492"><time>2026-05-03T00:39:47Z</time></trkpt>
<trkpt lat="50.225933" lon="4.748434"><time>2026-05-03T00:49:47Z</time></trkpt>
<trkpt lat="50.225555" lon="4.748445"><time>2026-05-03T00:59:47Z</time></trkpt>
<trkpt lat="50.225511" lon="4.748206"><time>2026-05-03T01:09:47Z</time></trkpt>
<trkpt lat="50.223506" lon="4.748134"><time>2026-05-03T01:19:47Z</time></trkpt>
<trkpt lat="50.222913" lon="4.748129"><time>2026-05-03T01:29:47Z</time></trkpt>
</trkseg></trk>
<trk>
<name>nonan25</name>
<cmt>b</cmt>
<desc>Anthée Chemin n°25 Rue Burton</desc>
<link href="https://chemins.be/anthee/chemin/25"/><trkseg>
<trkpt lat="50.222913" lon="4.748129"><time>2026-05-03T01:29:47Z</time></trkpt>
<trkpt lat="50.220449" lon="4.748362"><time>2026-05-03T01:39:47Z</time></trkpt>
<trkpt lat="50.219033" lon="4.749542"><time>2026-05-03T01:49:47Z</time></trkpt>
<trkpt lat="50.218507" lon="4.750995"><time>2026-05-03T01:59:47Z</time></trkpt>
<trkpt lat="50.218344" lon="4.751316"><time>2026-05-03T02:09:47Z</time></trkpt>
</trkseg>
</trk>
</gpx>